Terminal Aerodrome Forecast
Issued by NWS Charleston, WV

Current Version | Previous Version | Text Only | Print | Product List | Glossary On
Versions: 1 2 3 4 5 6 7 8 9 10 11 12 13 14 15 16 17 18 19 20 21 22 23
000
FTUS41 KRLX 011100
TAFCRW
TAF
KCRW 011136Z 0112/0212 00000KT 4SM BR OVC007
     FM011400 VRB03KT 6SM HZ BKN015
     FM011800 27004KT P6SM BKN024
     FM012100 VRB03KT P6SM SCT025
     FM020400 00000KT 4SM BR SCT002
     FM020700 00000KT 2SM BR BKN001
     FM020900 00000KT 1/2SM FG BKN002=

USA.gov is the U.S. government's official web portal to all federal, state and local government web resources and services.